createdAt,value
2018-08-22T00:01:17.709Z,8.00
2018-08-22T00:03:46.364Z,7.87
2018-08-22T00:06:15.019Z,8.70
2018-08-22T00:08:44.873Z,7.70
2018-08-22T00:11:14.557Z,8.37
2018-08-22T00:13:44.414Z,7.73
2018-08-22T00:16:13.049Z,8.27
2018-08-22T00:18:41.690Z,9.40
2018-08-22T00:21:10.349Z,8.53
2018-08-22T00:23:39.021Z,8.50
2018-08-22T00:26:07.645Z,7.73
2018-08-22T00:28:36.274Z,8.77
2018-08-22T00:31:04.909Z,7.90
2018-08-22T00:33:33.529Z,8.50
2018-08-22T00:36:02.264Z,8.60
2018-08-22T00:38:30.860Z,8.57
2018-08-22T00:40:59.525Z,8.90
2018-08-22T00:43:28.185Z,8.47
2018-08-22T00:45:56.817Z,9.53
2018-08-22T00:48:25.596Z,9.30
2018-08-22T00:50:54.227Z,8.30
2018-08-22T00:53:22.841Z,9.17
2018-08-22T00:55:51.514Z,9.60
2018-08-22T00:58:20.188Z,16.87
2018-08-22T01:00:49.019Z,9.03
2018-08-22T01:03:17.617Z,9.30
2018-08-22T01:05:46.235Z,9.13
2018-08-22T01:08:14.865Z,8.97
2018-08-22T01:10:43.498Z,9.40
2018-08-22T01:13:12.185Z,10.10
2018-08-22T01:15:40.817Z,9.20
2018-08-22T01:18:09.457Z,9.00
2018-08-22T01:20:38.096Z,8.73
2018-08-22T01:23:06.736Z,10.43
2018-08-22T01:25:35.457Z,9.53
2018-08-22T01:28:04.081Z,9.37
2018-08-22T01:30:32.739Z,9.73
2018-08-22T01:33:01.394Z,9.43
2018-08-22T01:35:30.024Z,9.17
2018-08-22T01:37:58.691Z,9.03
2018-08-22T01:40:27.324Z,8.67
2018-08-22T01:42:55.946Z,9.60
2018-08-22T01:45:24.590Z,8.80
2018-08-22T01:47:53.269Z,8.57
2018-08-22T01:50:21.969Z,9.93
2018-08-22T01:52:50.599Z,9.70
2018-08-22T01:55:19.237Z,11.87
2018-08-22T01:57:47.881Z,10.13
2018-08-22T02:00:16.545Z,8.93
2018-08-22T02:02:45.161Z,9.43
2018-08-22T02:05:13.861Z,9.37
2018-08-22T02:07:42.454Z,9.03
2018-08-22T02:10:11.110Z,9.57
2018-08-22T02:12:39.749Z,9.40
2018-08-22T02:15:08.572Z,9.50
2018-08-22T02:17:37.201Z,8.70
2018-08-22T02:20:05.892Z,8.70
2018-08-22T02:22:34.544Z,9.17
2018-08-22T02:25:03.244Z,9.43
2018-08-22T02:27:31.913Z,9.37
2018-08-22T02:30:00.526Z,9.90
2018-08-22T02:32:29.147Z,9.00
2018-08-22T02:34:57.882Z,9.13
2018-08-22T02:37:26.496Z,9.57
2018-08-22T02:39:55.151Z,9.47
2018-08-22T02:42:23.754Z,9.43
2018-08-22T02:44:52.399Z,8.40
2018-08-22T02:47:21.023Z,9.50
2018-08-22T02:49:49.652Z,10.17
2018-08-22T02:52:18.346Z,8.97
2018-08-22T02:54:46.966Z,10.50
2018-08-22T02:57:15.581Z,10.03
2018-08-22T02:59:44.209Z,9.57
2018-08-22T03:02:12.905Z,8.73
2018-08-22T03:04:41.538Z,9.13
2018-08-22T03:07:10.186Z,10.20
2018-08-22T03:09:38.813Z,9.97
2018-08-22T03:12:07.482Z,9.73
2018-08-22T03:14:36.086Z,9.37
2018-08-22T03:17:04.726Z,9.33
2018-08-22T03:19:33.366Z,10.00
2018-08-22T03:22:02.403Z,9.17
2018-08-22T03:24:31.073Z,10.13
2018-08-22T03:26:59.689Z,9.83
2018-08-22T03:29:28.630Z,9.47
2018-08-22T03:31:57.245Z,9.47
2018-08-22T03:34:25.888Z,10.00
2018-08-22T03:36:54.546Z,9.77
2018-08-22T03:39:23.189Z,9.73
2018-08-22T03:41:51.917Z,9.77
2018-08-22T03:44:20.533Z,10.27
2018-08-22T03:46:49.129Z,9.90
2018-08-22T03:49:17.775Z,10.57
2018-08-22T03:51:46.469Z,10.17
2018-08-22T03:54:15.085Z,9.93
2018-08-22T03:56:43.709Z,9.77
2018-08-22T03:59:12.502Z,9.53
2018-08-22T04:01:41.226Z,9.97
2018-08-22T04:04:09.851Z,9.83
2018-08-22T04:06:38.465Z,9.53
2018-08-22T04:09:07.841Z,9.20
2018-08-22T04:11:36.464Z,9.97
2018-08-22T04:14:05.214Z,10.90
2018-08-22T04:16:33.850Z,9.67
2018-08-22T04:19:02.493Z,10.47
2018-08-22T04:21:31.188Z,9.33
2018-08-22T04:23:59.826Z,10.87
2018-08-22T04:26:28.477Z,10.27
2018-08-22T04:28:57.077Z,9.93
2018-08-22T04:31:25.729Z,10.70
2018-08-22T04:33:54.357Z,10.00
2018-08-22T04:36:22.969Z,10.60
2018-08-22T04:38:51.633Z,10.20
2018-08-22T04:41:20.282Z,9.50
2018-08-22T04:43:48.886Z,9.50
2018-08-22T04:46:17.557Z,10.13
2018-08-22T04:48:46.194Z,10.23
2018-08-22T04:51:14.850Z,10.37
2018-08-22T04:53:43.472Z,9.83
2018-08-22T04:56:12.146Z,10.10
2018-08-22T04:58:42.037Z,10.03
2018-08-22T05:01:10.700Z,10.07
2018-08-22T05:03:39.308Z,9.13
2018-08-22T05:06:07.972Z,9.77
2018-08-22T05:08:36.593Z,9.20
2018-08-22T05:11:05.255Z,9.97
2018-08-22T05:13:33.893Z,9.97
2018-08-22T05:16:02.969Z,10.23
2018-08-22T05:18:31.594Z,9.83
2018-08-22T05:21:00.291Z,9.40
2018-08-22T05:23:28.913Z,10.83
2018-08-22T05:25:57.801Z,9.20
2018-08-22T05:28:26.442Z,9.70
2018-08-22T05:30:55.045Z,9.37
2018-08-22T05:33:23.686Z,10.00
2018-08-22T05:35:52.317Z,10.10
2018-08-22T05:38:20.989Z,10.13
2018-08-22T05:40:49.593Z,10.53
2018-08-22T05:43:18.232Z,16.33
2018-08-22T05:45:46.897Z,11.07
2018-08-22T05:48:15.508Z,15.60
2018-08-22T05:50:44.121Z,11.17
2018-08-22T05:53:12.772Z,10.40
2018-08-22T05:55:41.397Z,9.40
2018-08-22T05:58:16.729Z,12.60
2018-08-22T06:00:45.325Z,10.13
2018-08-22T06:03:14.617Z,13.70
2018-08-22T06:05:43.297Z,9.40
2018-08-22T06:08:11.918Z,10.57
2018-08-22T06:10:40.555Z,12.13
2018-08-22T06:13:09.161Z,8.77
2018-08-22T06:15:37.834Z,8.00
2018-08-22T06:18:06.501Z,8.13
2018-08-22T06:20:35.152Z,7.77
2018-08-22T06:23:03.869Z,7.87
2018-08-22T06:25:32.521Z,10.73
2018-08-22T06:28:01.434Z,6.90
2018-08-22T06:30:30.081Z,8.63
2018-08-22T06:32:58.777Z,8.53
2018-08-22T06:35:27.425Z,7.13
2018-08-22T06:37:56.090Z,7.40
2018-08-22T06:40:24.718Z,7.30
2018-08-22T06:42:53.358Z,6.97
2018-08-22T06:45:21.970Z,6.37
2018-08-22T06:47:50.622Z,7.27
2018-08-22T06:50:19.339Z,6.70
2018-08-22T06:52:47.889Z,6.80
2018-08-22T06:55:16.574Z,6.67
2018-08-22T06:57:45.319Z,6.77
2018-08-22T07:00:13.965Z,6.60
2018-08-22T07:02:42.837Z,7.33
2018-08-22T07:05:11.653Z,9.13
2018-08-22T07:07:40.281Z,7.73
2018-08-22T07:10:08.965Z,9.50
2018-08-22T07:12:37.574Z,13.70
2018-08-22T07:15:06.877Z,10.40
2018-08-22T07:17:35.506Z,13.57
2018-08-22T07:20:04.417Z,7.20
2018-08-22T07:22:33.052Z,12.90
2018-08-22T07:25:01.672Z,6.50
2018-08-22T07:27:30.311Z,8.27
2018-08-22T07:29:58.989Z,6.33
2018-08-22T07:32:27.655Z,7.70
2018-08-22T07:34:56.273Z,7.93
2018-08-22T07:37:24.925Z,10.57
2018-08-22T07:39:53.533Z,7.43
2018-08-22T07:42:22.184Z,11.20
2018-08-22T07:44:50.849Z,10.00
2018-08-22T07:47:19.506Z,8.53
2018-08-22T07:49:48.117Z,9.20
2018-08-22T07:52:16.725Z,8.10
2018-08-22T07:54:46.425Z,8.13
2018-08-22T07:57:17.425Z,6.93
2018-08-22T07:59:46.048Z,7.03
2018-08-22T08:02:14.652Z,12.73
2018-08-22T08:04:43.346Z,8.00
2018-08-22T08:07:12.182Z,7.13
2018-08-22T08:09:40.915Z,7.10
2018-08-22T08:12:09.638Z,6.43
2018-08-22T08:14:38.339Z,6.70
2018-08-22T08:17:07.078Z,6.97
2018-08-22T08:19:35.727Z,6.00
2018-08-22T08:22:04.367Z,6.37
2018-08-22T08:24:32.986Z,6.77
2018-08-22T08:27:01.679Z,7.87
2018-08-22T08:29:30.287Z,7.60
2018-08-22T08:31:58.902Z,5.53
2018-08-22T08:34:27.524Z,6.33
2018-08-22T08:36:56.158Z,7.40
2018-08-22T08:39:24.828Z,7.67
2018-08-22T08:41:53.490Z,7.40
2018-08-22T08:44:22.109Z,6.23
2018-08-22T08:46:50.837Z,9.47
2018-08-22T08:49:19.525Z,6.10
2018-08-22T08:51:56.770Z,7.07
2018-08-22T08:54:25.383Z,8.83
2018-08-22T08:56:53.978Z,7.63
2018-08-22T08:59:22.957Z,7.47
2018-08-22T09:01:51.601Z,6.97
2018-08-22T09:04:20.327Z,6.50
2018-08-22T09:06:49.605Z,7.97
2018-08-22T09:09:18.274Z,6.50
2018-08-22T09:11:53.885Z,7.20
2018-08-22T09:14:22.794Z,7.33
2018-08-22T09:16:51.415Z,8.20
2018-08-22T09:19:20.154Z,8.60
2018-08-22T09:21:49.013Z,6.30
2018-08-22T09:24:17.619Z,8.43
2018-08-22T09:26:46.271Z,7.00
2018-08-22T09:29:14.918Z,6.73
2018-08-22T09:31:43.529Z,7.70
2018-08-22T09:34:12.179Z,6.87
2018-08-22T09:36:40.789Z,7.27
2018-08-22T09:39:11.650Z,7.90
2018-08-22T09:41:40.304Z,12.77
2018-08-22T09:44:09.049Z,7.73
2018-08-22T09:46:38.772Z,9.00
2018-08-22T09:49:07.338Z,7.10
2018-08-22T09:51:36.069Z,7.57
2018-08-22T09:54:04.753Z,7.10
2018-08-22T09:56:33.415Z,7.47
2018-08-22T09:59:02.840Z,7.83
2018-08-22T10:01:36.778Z,7.00
2018-08-22T10:04:05.481Z,6.93
2018-08-22T10:06:44.629Z,7.50
2018-08-22T10:09:16.329Z,6.87
2018-08-22T10:11:45.046Z,6.40
2018-08-22T10:14:13.757Z,7.77
2018-08-22T10:16:42.428Z,8.57
2018-08-22T10:19:11.080Z,7.70
2018-08-22T10:21:39.788Z,7.07
2018-08-22T10:24:08.449Z,7.30
2018-08-22T10:26:37.133Z,6.60
2018-08-22T10:29:05.793Z,6.27
2018-08-22T10:31:34.402Z,6.23
2018-08-22T10:34:03.008Z,7.13
2018-08-22T10:36:31.723Z,6.53
2018-08-22T10:39:00.355Z,6.37
2018-08-22T10:41:28.973Z,6.53
2018-08-22T10:43:57.589Z,7.27
2018-08-22T10:46:26.210Z,6.30
2018-08-22T10:48:54.850Z,7.20
2018-08-22T10:51:23.476Z,7.97
2018-08-22T10:53:52.137Z,6.80
2018-08-22T10:56:20.781Z,6.97
2018-08-22T10:58:49.377Z,7.37
2018-08-22T11:01:18.087Z,7.03
2018-08-22T11:03:46.703Z,7.00
2018-08-22T11:06:15.321Z,6.63
2018-08-22T11:08:43.980Z,7.30
2018-08-22T11:11:12.581Z,6.70
2018-08-22T11:13:41.364Z,7.13
2018-08-22T11:16:09.979Z,7.83
2018-08-22T11:18:38.641Z,7.67
2018-08-22T11:21:18.333Z,7.03
2018-08-22T11:23:58.264Z,7.53
2018-08-22T11:26:37.958Z,7.87
2018-08-22T11:29:17.841Z,6.97
2018-08-22T11:31:57.559Z,6.70
2018-08-22T11:34:37.361Z,7.73
2018-08-22T11:37:08.662Z,8.07
2018-08-22T11:39:37.410Z,6.73
2018-08-22T11:42:06.383Z,7.43
2018-08-22T11:44:34.998Z,6.97
2018-08-22T11:47:03.670Z,7.33
2018-08-22T11:49:32.701Z,7.20
2018-08-22T11:52:01.724Z,7.87
2018-08-22T11:54:30.901Z,6.70
2018-08-22T11:56:59.792Z,6.60
2018-08-22T11:59:28.533Z,6.93
2018-08-22T12:01:57.206Z,6.23
2018-08-22T12:04:25.862Z,5.70
2018-08-22T12:06:54.475Z,8.20
2018-08-22T12:09:23.109Z,7.07
2018-08-22T12:11:51.769Z,7.50
2018-08-22T12:14:20.449Z,7.43
2018-08-22T12:16:49.090Z,6.70
2018-08-22T12:19:17.702Z,7.13
2018-08-22T12:21:46.358Z,6.47
2018-08-22T12:24:15.221Z,7.57
2018-08-22T12:26:43.854Z,6.70
2018-08-22T12:29:12.842Z,7.10
2018-08-22T12:31:41.487Z,7.20
2018-08-22T12:34:10.130Z,7.77
2018-08-22T12:36:38.783Z,6.70
2018-08-22T12:39:07.975Z,6.77
2018-08-22T12:41:36.578Z,6.47
2018-08-22T12:44:05.273Z,13.43
2018-08-22T12:46:33.926Z,7.37
2018-08-22T12:49:02.806Z,6.53
2018-08-22T12:51:31.471Z,5.90
2018-08-22T12:54:00.113Z,6.40
2018-08-22T12:56:28.873Z,6.27
2018-08-22T12:58:57.500Z,6.17
2018-08-22T13:01:26.146Z,6.53
2018-08-22T13:03:54.797Z,7.03
2018-08-22T13:06:23.389Z,6.73
2018-08-22T13:08:52.141Z,6.17
2018-08-22T13:11:20.783Z,5.87
2018-08-22T13:13:49.525Z,6.33
2018-08-22T13:16:18.145Z,6.53
2018-08-22T13:18:46.757Z,6.47
2018-08-22T13:21:15.418Z,6.37
2018-08-22T13:23:44.010Z,6.93
2018-08-22T13:26:12.737Z,6.20
2018-08-22T13:28:41.342Z,6.03
2018-08-22T13:31:09.959Z,5.97
2018-08-22T13:33:38.609Z,6.20
2018-08-22T13:36:07.278Z,6.90
2018-08-22T13:38:35.883Z,6.03
2018-08-22T13:41:04.530Z,6.17
2018-08-22T13:43:33.325Z,6.00
2018-08-22T13:46:02.038Z,6.10
2018-08-22T13:48:30.659Z,6.47
2018-08-22T13:50:59.294Z,6.53
2018-08-22T13:53:27.893Z,5.83
2018-08-22T13:55:56.687Z,6.20
2018-08-22T13:58:25.309Z,6.37
2018-08-22T14:00:53.946Z,5.87
2018-08-22T14:03:22.590Z,6.07
2018-08-22T14:05:51.229Z,5.87
2018-08-22T14:08:19.893Z,6.13
2018-08-22T14:10:48.525Z,6.27
2018-08-22T14:13:17.195Z,5.53
2018-08-22T14:15:45.797Z,6.03
2018-08-22T14:18:14.489Z,6.07
2018-08-22T14:20:43.142Z,6.10
2018-08-22T14:23:14.584Z,6.00
2018-08-22T14:25:43.214Z,6.60
2018-08-22T14:28:11.872Z,6.43
2018-08-22T14:30:40.527Z,5.70
2018-08-22T14:33:09.162Z,5.53
2018-08-22T14:35:37.973Z,5.60
2018-08-22T14:38:06.675Z,6.43
2018-08-22T14:40:35.297Z,6.50
2018-08-22T14:43:04.223Z,6.03
2018-08-22T14:45:32.857Z,5.80
2018-08-22T14:48:01.982Z,7.90
2018-08-22T14:50:30.714Z,7.47
2018-08-22T14:52:59.427Z,5.13
2018-08-22T14:55:28.093Z,5.50
2018-08-22T14:57:56.736Z,5.97
2018-08-22T15:00:25.480Z,6.53
2018-08-22T15:02:54.478Z,5.93
2018-08-22T15:05:22.942Z,5.70
2018-08-22T15:07:51.587Z,6.00
2018-08-22T15:10:20.259Z,6.37
2018-08-22T15:12:49.097Z,7.00
2018-08-22T15:15:17.689Z,6.23
2018-08-22T15:17:46.361Z,6.07
2018-08-22T15:20:17.705Z,7.10
2018-08-22T15:22:46.349Z,6.20
2018-08-22T15:25:14.989Z,6.37
2018-08-22T15:27:43.659Z,6.50
2018-08-22T15:30:12.299Z,7.73
2018-08-22T15:32:41.003Z,6.30
2018-08-22T15:35:09.614Z,6.53
2018-08-22T15:37:38.258Z,6.50
2018-08-22T15:40:06.982Z,6.63
2018-08-22T15:42:35.629Z,6.50
2018-08-22T15:45:04.858Z,6.77
2018-08-22T15:47:33.539Z,5.87
2018-08-22T15:50:02.155Z,6.33
2018-08-22T15:52:30.862Z,6.50
2018-08-22T15:55:11.756Z,6.63
2018-08-22T15:57:59.689Z,6.80
2018-08-22T16:00:34.001Z,6.30
2018-08-22T16:03:04.098Z,5.93
2018-08-22T16:05:33.573Z,6.03
2018-08-22T16:08:02.335Z,7.10
2018-08-22T16:10:31.445Z,6.10
2018-08-22T16:13:00.254Z,6.43
2018-08-22T16:15:32.054Z,8.07
2018-08-22T16:18:03.513Z,5.73
2018-08-22T16:20:32.317Z,6.10
2018-08-22T16:23:00.954Z,5.53
2018-08-22T16:25:34.830Z,6.13
2018-08-22T16:28:03.889Z,6.77
2018-08-22T16:30:32.583Z,6.60
2018-08-22T16:33:01.223Z,6.63
2018-08-22T16:35:29.841Z,6.97
2018-08-22T16:38:04.571Z,7.63
2018-08-22T16:40:34.867Z,5.87
2018-08-22T16:43:05.058Z,5.80
2018-08-22T16:45:40.609Z,7.17
2018-08-22T16:48:09.333Z,6.83
2018-08-22T16:50:37.971Z,6.50
2018-08-22T16:53:06.598Z,12.10
2018-08-22T16:55:35.278Z,6.60
2018-08-22T16:58:03.923Z,6.30
2018-08-22T17:00:38.398Z,6.70
2018-08-22T17:03:08.186Z,6.47
2018-08-22T17:05:37.873Z,6.30
2018-08-22T17:08:09.614Z,6.40
2018-08-22T17:10:50.149Z,6.47
2018-08-22T17:13:26.809Z,7.50
2018-08-22T17:16:02.649Z,7.20
2018-08-22T17:18:31.399Z,6.23
2018-08-22T17:21:00.058Z,6.57
2018-08-22T17:23:28.710Z,6.43
2018-08-22T17:25:57.383Z,7.20
2018-08-22T17:28:31.274Z,6.07
2018-08-22T17:30:59.954Z,6.57
2018-08-22T17:33:33.886Z,7.30
2018-08-22T17:36:02.540Z,6.80
2018-08-22T17:38:31.214Z,6.33
2018-08-22T17:40:59.885Z,6.97
2018-08-22T17:43:28.524Z,6.83
2018-08-22T17:45:57.174Z,6.37
2018-08-22T17:48:25.864Z,6.80
2018-08-22T17:50:54.509Z,6.87
2018-08-22T17:53:23.160Z,6.67
2018-08-22T17:55:51.818Z,7.33
2018-08-22T17:58:20.486Z,6.13
2018-08-22T18:00:49.169Z,7.50
2018-08-22T18:03:17.814Z,6.47
2018-08-22T18:05:47.127Z,6.73
2018-08-22T18:08:15.809Z,7.03
2018-08-22T18:10:44.448Z,6.67
2018-08-22T18:13:16.456Z,7.97
2018-08-22T18:15:45.782Z,6.80
2018-08-22T18:18:14.518Z,7.57
2018-08-22T18:20:46.631Z,7.33
2018-08-22T18:23:15.721Z,6.90
2018-08-22T18:26:01.897Z,7.27
2018-08-22T18:28:37.224Z,6.97
2018-08-22T18:33:59.534Z,7.80
2018-08-22T18:36:29.706Z,8.20
2018-08-22T18:39:10.359Z,7.37
2018-08-22T18:41:39.066Z,7.63
2018-08-22T18:44:07.719Z,6.97
2018-08-22T18:46:36.773Z,9.60
2018-08-22T18:49:05.986Z,8.13
2018-08-22T18:51:35.153Z,7.57
2018-08-22T18:54:04.934Z,8.43
2018-08-22T18:56:33.672Z,8.30
2018-08-22T18:59:13.413Z,7.60
2018-08-22T19:01:42.128Z,9.17
2018-08-22T19:04:10.943Z,7.00
2018-08-22T19:06:39.657Z,7.40
2018-08-22T19:09:08.286Z,7.40
2018-08-22T19:11:36.922Z,7.80
2018-08-22T19:14:05.537Z,8.03
2018-08-22T19:16:34.198Z,9.73
2018-08-22T19:19:03.121Z,7.77
2018-08-22T19:21:31.768Z,9.17
2018-08-22T19:24:05.006Z,8.90
2018-08-22T19:26:33.811Z,9.30
2018-08-22T19:29:04.322Z,9.37
2018-08-22T19:31:32.944Z,11.63
2018-08-22T19:34:01.595Z,8.47
2018-08-22T19:36:30.213Z,9.43
2018-08-22T19:38:58.846Z,8.43
2018-08-22T19:41:31.505Z,9.10
2018-08-22T19:44:00.159Z,8.57
2018-08-22T19:46:28.790Z,10.97
2018-08-22T19:48:57.588Z,9.20
2018-08-22T19:51:26.213Z,7.73
2018-08-22T19:54:02.469Z,12.37
2018-08-22T19:56:32.229Z,10.70
2018-08-22T19:59:07.761Z,12.37
2018-08-22T20:01:37.630Z,10.07
2018-08-22T20:04:07.087Z,15.87
2018-08-22T20:06:35.697Z,8.77
2018-08-22T20:09:04.641Z,8.60
2018-08-22T20:11:33.689Z,13.80
2018-08-22T20:14:06.365Z,10.20
2018-08-22T20:16:35.010Z,9.23
2018-08-22T20:19:05.075Z,8.37
2018-08-22T20:21:38.267Z,11.17
2018-08-22T20:24:08.726Z,11.97
2018-08-22T20:26:37.757Z,10.00
2018-08-22T20:29:06.677Z,10.37
2018-08-22T20:31:36.208Z,11.17
2018-08-22T20:34:09.168Z,10.60
2018-08-22T20:36:37.871Z,12.23
2018-08-22T20:39:11.822Z,11.03
2018-08-22T20:41:41.224Z,11.30
2018-08-22T20:44:18.999Z,10.30
2018-08-22T20:46:48.473Z,12.53
2018-08-22T20:49:18.617Z,12.10
2018-08-22T20:51:47.374Z,13.20
2018-08-22T20:54:20.573Z,11.63
2018-08-22T20:56:54.427Z,9.37
2018-08-22T20:59:23.078Z,10.13
2018-08-22T21:01:57.081Z,8.73
2018-08-22T21:04:25.682Z,8.87
2018-08-22T21:06:54.357Z,9.17
2018-08-22T21:09:23.012Z,10.17
2018-08-22T21:11:52.538Z,9.90
2018-08-22T21:14:21.189Z,11.20
2018-08-22T21:16:49.849Z,11.10
2018-08-22T21:19:18.482Z,10.53
2018-08-22T21:21:47.116Z,12.77
2018-08-22T21:24:15.786Z,12.33
2018-08-22T21:26:45.965Z,12.17
2018-08-22T21:29:14.798Z,11.67
2018-08-22T21:31:44.455Z,9.67
2018-08-22T21:34:18.489Z,9.90
2018-08-22T21:36:48.262Z,9.67
2018-08-22T21:39:22.002Z,13.70
2018-08-22T21:41:50.695Z,10.23
2018-08-22T21:44:20.702Z,9.77
2018-08-22T21:47:09.669Z,9.30
2018-08-22T21:49:38.287Z,9.47
2018-08-22T21:52:06.934Z,11.57
2018-08-22T21:54:35.570Z,9.13
2018-08-22T21:57:04.401Z,9.80
2018-08-22T21:59:33.006Z,9.43
2018-08-22T22:02:06.706Z,9.03
2018-08-22T22:04:36.539Z,12.70
2018-08-22T22:07:06.482Z,10.67
2018-08-22T22:09:35.912Z,10.07
2018-08-22T22:12:08.856Z,9.83
2018-08-22T22:14:37.471Z,12.87
2018-08-22T22:17:06.449Z,9.60
2018-08-22T22:19:36.045Z,10.20
2018-08-22T22:22:04.957Z,9.47
2018-08-22T22:24:38.611Z,9.50
2018-08-22T22:27:08.925Z,10.30
2018-08-22T22:29:37.539Z,11.87
2018-08-22T22:32:06.259Z,10.47
2018-08-22T22:34:34.938Z,11.00
2018-08-22T22:37:03.824Z,9.90
2018-08-22T22:39:38.033Z,10.23
2018-08-22T22:42:25.197Z,9.67
2018-08-22T22:44:54.853Z,8.87
2018-08-22T22:47:33.709Z,9.40
2018-08-22T22:50:03.070Z,10.03
2018-08-22T22:52:34.378Z,10.83
2018-08-22T22:55:04.142Z,10.20
2018-08-22T22:57:34.037Z,9.33
2018-08-22T23:00:03.338Z,9.90
2018-08-22T23:02:32.675Z,9.57
2018-08-22T23:05:01.886Z,11.80
2018-08-22T23:07:38.874Z,10.03
2018-08-22T23:10:09.170Z,10.87
2018-08-22T23:12:39.689Z,9.87
2018-08-22T23:15:13.204Z,9.20
2018-08-22T23:17:42.245Z,9.23
2018-08-22T23:20:45.070Z,10.17
2018-08-22T23:23:27.361Z,9.50
2018-08-22T23:26:03.254Z,10.93
2018-08-22T23:28:31.870Z,11.13
2018-08-22T23:31:00.570Z,14.27
2018-08-22T23:33:29.213Z,10.13
2018-08-22T23:35:57.842Z,10.17
2018-08-22T23:38:31.316Z,9.87
2018-08-22T23:41:00.450Z,9.70
2018-08-22T23:43:37.259Z,11.53
2018-08-22T23:46:07.067Z,10.03
2018-08-22T23:48:36.374Z,10.17
2018-08-22T23:51:07.277Z,9.90
2018-08-22T23:53:41.353Z,10.20
2018-08-22T23:56:27.911Z,10.30
2018-08-22T23:58:57.102Z,10.67
